European Causeway — C6RG7 — position and weather

sailwx.info

Track history (hours):
 
Tides and Currents Weather Stations Pressure Air Temp Water Temp Dewpoint Dewpoint Depression Visibility Wind Speed Wind Dir Waves Ship Positions

European Causeway

Operator: P & O Irish Sea

Last reported at 2015-May-05 15:21 UTC. Time now 2015-May-05 18:19 UTC.
Position N 53°23' W 003°01'.

Length 165 m; draft 5 m.

Type: Passenger vessel. MMSI: 311027000.

Date/timePositionNaut miles runAvg speedWind from/ knotsBaromVisibWave heightAir tempDewpointWater temp
2015-May-05 15:21N 53°23' W 003°01'  
2015-May-02 09:27N 53°23' W 003°01'0 0.2
2015-May-02 08:33N 53°23' W 003°00'5 5.2
2015-May-02 07:33N 53°28' W 003°04'1010.1
2015-May-02 06:33N 53°32' W 003°19'1313.5
2015-May-02 05:34N 53°31' W 003°42'1514.7
2015-May-02 04:33N 53°38' W 004°04'4911.6
2015-May-02 00:17N 54°12' W 005°05'911.7
2015-May-01 23:33N 54°20' W 005°10'1211.7
2015-May-01 22:33N 54°31' W 005°15'1211.8
2015-May-01 21:33N 54°42' W 005°24'1312.4
2015-May-01 20:32N 54°51' W 005°39'5 5.0
2015-May-01 19:31N 54°51' W 005°48'0 0.0
2015-May-01 18:31N 54°51' W 005°48'0 0.0
2015-May-01 17:31N 54°51' W 005°48'0 0.0
2015-May-01 16:30N 54°51' W 005°48'1 1.4
2015-May-01 15:25N 54°52' W 005°48'1 1.7
2015-May-01 14:32N 54°51' W 005°48'6 5.9
2015-May-01 13:33N 54°54' W 005°39'1817.9
2015-May-01 12:33N 55°02' W 005°11'7 7.2
2015-May-01 11:32N 54°58' W 005°01'0 0.0
2015-May-01 10:33N 54°58' W 005°01'0 0.0
2015-May-01 09:31N 54°58' W 005°01'0 0.0
2015-May-01 08:33N 54°58' W 005°01'1110.6
2015-May-01 07:33N 54°58' W 005°19'1817.6
2015-May-01 06:33N 54°51' W 005°48'0 0.1
2015-May-01 05:33N 54°51' W 005°48'5 5.3
2015-May-01 04:33N 54°54' W 005°40'1817.7
2015-May-01 03:33N 55°01' W 005°12'7 7.1
2015-May-01 02:32N 54°58' W 005°01'0 0.0
2015-May-01 01:32N 54°58' W 005°01'6 5.8
2015-May-01 00:30N 55°01' W 005°09'1717.8
2015-Apr-30 23:32N 54°54' W 005°36'7 7.7
2015-Apr-30 22:33N 54°51' W 005°48'0 0.0
2015-Apr-30 21:33N 54°51' W 005°48'3 3.5
2015-Apr-30 20:33N 54°53' W 005°43'15 3.7
2015-Apr-30 16:33N 54°58' W 005°19'1817.4
2015-Apr-30 15:32N 54°51' W 005°48'0 0.4
2015-Apr-30 14:33N 54°51' W 005°48'13 8.5
2015-Apr-30 13:04N 54°57' W 005°29'917.4
2015-Apr-30 12:33N 55°01' W 005°15'9 8.8
2015-Apr-30 11:33N 54°58' W 005°01'0 0.0
2015-Apr-30 10:33N 54°58' W 005°01'0 0.0
2015-Apr-30 09:29N 54°58' W 005°01'0 0.0
2015-Apr-30 08:33N 54°58' W 005°01'1010.0
2015-Apr-30 07:33N 54°59' W 005°18'1817.0
2015-Apr-30 06:30N 54°52' W 005°47'1 1.1
2015-Apr-30 05:32N 54°51' W 005°48'5 5.5
2015-Apr-30 04:34N 54°54' W 005°40'2218.9
2015-Apr-30 03:25N 54°60' W 005°04'2 2.8
2015-Apr-30 02:33N 54°58' W 005°01'0 0.0
2015-Apr-30 01:33N 54°58' W 005°01'5 5.2
2015-Apr-30 00:31N 55°02' W 005°08'1717.6
2015-Apr-29 23:33N 54°55' W 005°35'8 8.5
2015-Apr-29 22:33N 54°51' W 005°48'0 0.0
2015-Apr-29 21:34N 54°51' W 005°48'12 8.9
2015-Apr-29 20:09N 54°57' W 005°29'1117.9
2015-Apr-29 19:32N 55°01' W 005°11'7 5.5
2015-Apr-29 18:18N 54°58' W 005°01'0 0.0
2015-Apr-29 17:33N 54°58' W 005°01'1010.2
2015-Apr-29 16:34N 54°58' W 005°18'1817.7
2015-Apr-29 15:31N 54°51' W 005°48'0 0.3
2015-Apr-29 14:34N 54°51' W 005°48'5 5.0
2015-Apr-29 13:33N 54°54' W 005°41'1817.8
2015-Apr-29 12:33N 55°01' W 005°13'8 7.9
2015-Apr-29 11:33N 54°58' W 005°01'0 0.0
2015-Apr-29 10:32N 54°58' W 005°01'0 0.0
2015-Apr-29 09:33N 54°58' W 005°01'0 0.0
2015-Apr-29 08:33N 54°58' W 005°01'9 9.3
2015-Apr-29 07:33N 54°59' W 005°17'1818.0
2015-Apr-29 06:33N 54°52' W 005°46'2 1.7
2015-Apr-29 05:33N 54°51' W 005°48'6 6.4
2015-Apr-29 04:33N 54°54' W 005°38'1919.0
2015-Apr-29 03:33N 55°02' W 005°08'6 5.7
2015-Apr-29 02:34N 54°58' W 005°01'0 0.0
2015-Apr-29 01:33N 54°58' W 005°01'5 5.1
2015-Apr-29 00:29N 55°01' W 005°08'1617.4
2015-Apr-28 23:33N 54°55' W 005°34'9 9.1
2015-Apr-28 22:33N 54°51' W 005°48'0 0.0
2015-Apr-28 21:33N 54°51' W 005°48'10 7.8
2015-Apr-28 20:16N 54°56' W 005°33'1317.6
2015-Apr-28 19:33N 55°01' W 005°13'8 7.2
2015-Apr-28 18:31N 54°58' W 005°01'0 0.2
2015-Apr-28 17:34N 54°58' W 005°01'1212.2
2015-Apr-28 16:33N 54°56' W 005°22'8 1.9
2015-Apr-28 12:31N 55°01' W 005°13'8 8.2
2015-Apr-28 11:33N 54°58' W 005°01'0 0.0
2015-Apr-28 10:33N 54°58' W 005°01'0 0.0
2015-Apr-28 09:33N 54°58' W 005°01'0 0.0
2015-Apr-28 08:33N 54°58' W 005°01'1010.5
2015-Apr-28 07:33N 54°58' W 005°19'1817.3
2015-Apr-28 06:31N 54°51' W 005°48'0 0.2
2015-Apr-28 05:29N 54°51' W 005°48'5 5.6
2015-Apr-28 04:32N 54°54' W 005°40'1918.9
2015-Apr-28 03:31N 55°02' W 005°09'6 6.3
2015-Apr-28 02:33N 54°58' W 005°01'0 0.0
2015-Apr-28 01:34N 54°58' W 005°01'5 4.3
2015-Apr-28 00:21N 55°01' W 005°07'1721.4
2015-Apr-27 23:34N 54°55' W 005°34'9 8.4
2015-Apr-27 22:31N 54°51' W 005°48'0 0.0
2015-Apr-27 21:31N 54°51' W 005°48'10 7.8
2015-Apr-27 20:14N 54°56' W 005°33'1217.0
2015-Apr-27 19:33N 55°01' W 005°14'8 8.1
2015-Apr-27 18:32N 54°58' W 005°01'0 0.0
2015-Apr-27 17:33N 54°58' W 005°01'1110.7
2015-Apr-27 16:33N 54°58' W 005°19'1817.3
2015-Apr-27 15:32N 54°51' W 005°48'0 0.1
2015-Apr-27 14:28N 54°51' W 005°48'2 2.4
2015-Apr-27 13:32N 54°52' W 005°45'1919.6
2015-Apr-27 12:33N 55°01' W 005°15'8 8.4
2015-Apr-27 11:33N 54°58' W 005°01'0 0.0
2015-Apr-27 10:32N 54°58' W 005°01'0 0.0
2015-Apr-27 09:33N 54°58' W 005°01'0 0.0
2015-Apr-27 08:33N 54°58' W 005°01'1211.8
2015-Apr-27 07:33N 54°58' W 005°22'1715.8
2015-Apr-27 06:30N 54°51' W 005°48'0 0.0
2015-Apr-27 05:27N 54°51' W 005°48'2 2.8
2015-Apr-27 04:33N 54°52' W 005°45'1717.3
2015-Apr-27 03:33N 54°60' W 005°17'10 9.4
2015-Apr-27 02:31N 54°58' W 005°01'0 0.0
2015-Apr-27 01:31N 54°58' W 005°01'0 0.0
2015-Apr-27 00:28N 54°58' W 005°01'5 5.7
2015-Apr-26 23:33N 55°01' W 005°07'1716.9
2015-Apr-26 22:33N 54°54' W 005°34'9 8.7
2015-Apr-26 21:33N 54°51' W 005°48'4 4.0
2015-Apr-26 20:33N 54°53' W 005°42'1817.9
2015-Apr-26 19:33N 55°01' W 005°14'8 6.7
2015-Apr-26 18:22N 54°58' W 005°01'7 8.3
2015-Apr-26 17:33N 55°01' W 005°11'2121.1
2015-Apr-26 16:33N 54°52' W 005°45'2 2.1
2015-Apr-26 15:33N 54°51' W 005°48'0 0.0
2015-Apr-26 14:33N 54°51' W 005°48'2 1.6
2015-Apr-26 13:34N 54°52' W 005°46'2020.3
2015-Apr-26 12:33N 55°01' W 005°14'8 8.2
2015-Apr-26 11:33N 54°58' W 005°01'0 0.0
2015-Apr-26 10:33N 54°58' W 005°01'0 0.0
2015-Apr-26 09:33N 54°58' W 005°01'0 0.2
2015-Apr-26 08:33N 54°58' W 005°01'1514.9
2015-Apr-26 07:34N 54°57' W 005°27'1412.9
2015-Apr-26 06:31N 54°51' W 005°48'0 0.0
2015-Apr-26 05:19N 54°51' W 005°48'0 0.0
2015-Apr-26 04:31N 54°51' W 005°48'0 0.0
2015-Apr-26 03:33N 54°51' W 005°48'0 0.0
2015-Apr-26 02:33N 54°51' W 005°48'0 0.0
2015-Apr-26 01:33N 54°51' W 005°48'0 0.0
2015-Apr-26 00:33N 54°51' W 005°48'0 0.0
2015-Apr-25 23:33N 54°51' W 005°48'0 0.0
2015-Apr-25 22:33N 54°51' W 005°48'0 0.0
2015-Apr-25 21:33N 54°51' W 005°48'3 3.0
2015-Apr-25 20:34N 54°53' W 005°44'2120.7
2015-Apr-25 19:34N 55°01' W 005°11'7 6.6
2015-Apr-25 18:31N 54°58' W 005°01'0 0.1
2015-Apr-25 17:31N 54°58' W 005°01'1110.9
2015-Apr-25 16:33N 54°58' W 005°19'1717.6
2015-Apr-25 15:33N 54°51' W 005°48'  
Track history (hours):
 
Tides and Currents Weather Stations Pressure Air Temp Water Temp Dewpoint Dewpoint Depression Visibility Wind Speed Wind Dir Waves Ship Positions

European Causeway

Operator: P & O Irish Sea

Last reported at 2015-May-05 15:21 UTC. Time now 2015-May-05 18:19 UTC.
Position N 53°23' W 003°01'.

Length 165 m; draft 5 m.

Type: Passenger vessel. MMSI: 311027000.

Date/timePositionNaut miles runAvg speedWind from/ knotsBaromVisibWave heightAir tempDewpointWater temp
2015-May-05 15:21N 53°23' W 003°01'  
2015-May-02 09:27N 53°23' W 003°01'0 0.2
2015-May-02 08:33N 53°23' W 003°00'5 5.2
2015-May-02 07:33N 53°28' W 003°04'1010.1
2015-May-02 06:33N 53°32' W 003°19'1313.5
2015-May-02 05:34N 53°31' W 003°42'1514.7
2015-May-02 04:33N 53°38' W 004°04'4911.6
2015-May-02 00:17N 54°12' W 005°05'911.7
2015-May-01 23:33N 54°20' W 005°10'1211.7
2015-May-01 22:33N 54°31' W 005°15'1211.8
2015-May-01 21:33N 54°42' W 005°24'1312.4
2015-May-01 20:32N 54°51' W 005°39'5 5.0
2015-May-01 19:31N 54°51' W 005°48'0 0.0
2015-May-01 18:31N 54°51' W 005°48'0 0.0
2015-May-01 17:31N 54°51' W 005°48'0 0.0
2015-May-01 16:30N 54°51' W 005°48'1 1.4
2015-May-01 15:25N 54°52' W 005°48'1 1.7
2015-May-01 14:32N 54°51' W 005°48'6 5.9
2015-May-01 13:33N 54°54' W 005°39'1817.9
2015-May-01 12:33N 55°02' W 005°11'7 7.2
2015-May-01 11:32N 54°58' W 005°01'0 0.0
2015-May-01 10:33N 54°58' W 005°01'0 0.0
2015-May-01 09:31N 54°58' W 005°01'0 0.0
2015-May-01 08:33N 54°58' W 005°01'1110.6
2015-May-01 07:33N 54°58' W 005°19'1817.6
2015-May-01 06:33N 54°51' W 005°48'0 0.1
2015-May-01 05:33N 54°51' W 005°48'5 5.3
2015-May-01 04:33N 54°54' W 005°40'1817.7
2015-May-01 03:33N 55°01' W 005°12'7 7.1
2015-May-01 02:32N 54°58' W 005°01'0 0.0
2015-May-01 01:32N 54°58' W 005°01'6 5.8
2015-May-01 00:30N 55°01' W 005°09'1717.8
2015-Apr-30 23:32N 54°54' W 005°36'7 7.7
2015-Apr-30 22:33N 54°51' W 005°48'0 0.0
2015-Apr-30 21:33N 54°51' W 005°48'3 3.5
2015-Apr-30 20:33N 54°53' W 005°43'15 3.7
2015-Apr-30 16:33N 54°58' W 005°19'1817.4
2015-Apr-30 15:32N 54°51' W 005°48'0 0.4
2015-Apr-30 14:33N 54°51' W 005°48'13 8.5
2015-Apr-30 13:04N 54°57' W 005°29'917.4
2015-Apr-30 12:33N 55°01' W 005°15'9 8.8
2015-Apr-30 11:33N 54°58' W 005°01'0 0.0
2015-Apr-30 10:33N 54°58' W 005°01'0 0.0
2015-Apr-30 09:29N 54°58' W 005°01'0 0.0
2015-Apr-30 08:33N 54°58' W 005°01'1010.0
2015-Apr-30 07:33N 54°59' W 005°18'1817.0
2015-Apr-30 06:30N 54°52' W 005°47'1 1.1
2015-Apr-30 05:32N 54°51' W 005°48'5 5.5
2015-Apr-30 04:34N 54°54' W 005°40'2218.9
2015-Apr-30 03:25N 54°60' W 005°04'2 2.8
2015-Apr-30 02:33N 54°58' W 005°01'0 0.0
2015-Apr-30 01:33N 54°58' W 005°01'5 5.2
2015-Apr-30 00:31N 55°02' W 005°08'1717.6
2015-Apr-29 23:33N 54°55' W 005°35'8 8.5
2015-Apr-29 22:33N 54°51' W 005°48'0 0.0
2015-Apr-29 21:34N 54°51' W 005°48'12 8.9
2015-Apr-29 20:09N 54°57' W 005°29'1117.9
2015-Apr-29 19:32N 55°01' W 005°11'7 5.5
2015-Apr-29 18:18N 54°58' W 005°01'0 0.0
2015-Apr-29 17:33N 54°58' W 005°01'1010.2
2015-Apr-29 16:34N 54°58' W 005°18'1817.7
2015-Apr-29 15:31N 54°51' W 005°48'0 0.3
2015-Apr-29 14:34N 54°51' W 005°48'5 5.0
2015-Apr-29 13:33N 54°54' W 005°41'1817.8
2015-Apr-29 12:33N 55°01' W 005°13'8 7.9
2015-Apr-29 11:33N 54°58' W 005°01'0 0.0
2015-Apr-29 10:32N 54°58' W 005°01'0 0.0
2015-Apr-29 09:33N 54°58' W 005°01'0 0.0
2015-Apr-29 08:33N 54°58' W 005°01'9 9.3
2015-Apr-29 07:33N 54°59' W 005°17'1818.0
2015-Apr-29 06:33N 54°52' W 005°46'2 1.7
2015-Apr-29 05:33N 54°51' W 005°48'6 6.4
2015-Apr-29 04:33N 54°54' W 005°38'1919.0
2015-Apr-29 03:33N 55°02' W 005°08'6 5.7
2015-Apr-29 02:34N 54°58' W 005°01'0 0.0
2015-Apr-29 01:33N 54°58' W 005°01'5 5.1
2015-Apr-29 00:29N 55°01' W 005°08'1617.4
2015-Apr-28 23:33N 54°55' W 005°34'9 9.1
2015-Apr-28 22:33N 54°51' W 005°48'0 0.0
2015-Apr-28 21:33N 54°51' W 005°48'10 7.8
2015-Apr-28 20:16N 54°56' W 005°33'1317.6
2015-Apr-28 19:33N 55°01' W 005°13'8 7.2
2015-Apr-28 18:31N 54°58' W 005°01'0 0.2
2015-Apr-28 17:34N 54°58' W 005°01'1212.2
2015-Apr-28 16:33N 54°56' W 005°22'8 1.9
2015-Apr-28 12:31N 55°01' W 005°13'8 8.2
2015-Apr-28 11:33N 54°58' W 005°01'0 0.0
2015-Apr-28 10:33N 54°58' W 005°01'0 0.0
2015-Apr-28 09:33N 54°58' W 005°01'0 0.0
2015-Apr-28 08:33N 54°58' W 005°01'1010.5
2015-Apr-28 07:33N 54°58' W 005°19'1817.3
2015-Apr-28 06:31N 54°51' W 005°48'0 0.2
2015-Apr-28 05:29N 54°51' W 005°48'5 5.6
2015-Apr-28 04:32N 54°54' W 005°40'1918.9
2015-Apr-28 03:31N 55°02' W 005°09'6 6.3
2015-Apr-28 02:33N 54°58' W 005°01'0 0.0
2015-Apr-28 01:34N 54°58' W 005°01'5 4.3
2015-Apr-28 00:21N 55°01' W 005°07'1721.4
2015-Apr-27 23:34N 54°55' W 005°34'9 8.4
2015-Apr-27 22:31N 54°51' W 005°48'0 0.0
2015-Apr-27 21:31N 54°51' W 005°48'10 7.8
2015-Apr-27 20:14N 54°56' W 005°33'1217.0
2015-Apr-27 19:33N 55°01' W 005°14'8 8.1
2015-Apr-27 18:32N 54°58' W 005°01'0 0.0
2015-Apr-27 17:33N 54°58' W 005°01'1110.7
2015-Apr-27 16:33N 54°58' W 005°19'1817.3
2015-Apr-27 15:32N 54°51' W 005°48'0 0.1
2015-Apr-27 14:28N 54°51' W 005°48'2 2.4
2015-Apr-27 13:32N 54°52' W 005°45'1919.6
2015-Apr-27 12:33N 55°01' W 005°15'8 8.4
2015-Apr-27 11:33N 54°58' W 005°01'0 0.0
2015-Apr-27 10:32N 54°58' W 005°01'0 0.0
2015-Apr-27 09:33N 54°58' W 005°01'0 0.0
2015-Apr-27 08:33N 54°58' W 005°01'1211.8
2015-Apr-27 07:33N 54°58' W 005°22'1715.8
2015-Apr-27 06:30N 54°51' W 005°48'0 0.0
2015-Apr-27 05:27N 54°51' W 005°48'2 2.8
2015-Apr-27 04:33N 54°52' W 005°45'1717.3
2015-Apr-27 03:33N 54°60' W 005°17'10 9.4
2015-Apr-27 02:31N 54°58' W 005°01'0 0.0
2015-Apr-27 01:31N 54°58' W 005°01'0 0.0
2015-Apr-27 00:28N 54°58' W 005°01'5 5.7
2015-Apr-26 23:33N 55°01' W 005°07'1716.9
2015-Apr-26 22:33N 54°54' W 005°34'9 8.7
2015-Apr-26 21:33N 54°51' W 005°48'4 4.0
2015-Apr-26 20:33N 54°53' W 005°42'1817.9
2015-Apr-26 19:33N 55°01' W 005°14'8 6.7
2015-Apr-26 18:22N 54°58' W 005°01'7 8.3
2015-Apr-26 17:33N 55°01' W 005°11'2121.1
2015-Apr-26 16:33N 54°52' W 005°45'2 2.1
2015-Apr-26 15:33N 54°51' W 005°48'0 0.0
2015-Apr-26 14:33N 54°51' W 005°48'2 1.6
2015-Apr-26 13:34N 54°52' W 005°46'2020.3
2015-Apr-26 12:33N 55°01' W 005°14'8 8.2
2015-Apr-26 11:33N 54°58' W 005°01'0 0.0
2015-Apr-26 10:33N 54°58' W 005°01'0 0.0
2015-Apr-26 09:33N 54°58' W 005°01'0 0.2
2015-Apr-26 08:33N 54°58' W 005°01'1514.9
2015-Apr-26 07:34N 54°57' W 005°27'1412.9
2015-Apr-26 06:31N 54°51' W 005°48'0 0.0
2015-Apr-26 05:19N 54°51' W 005°48'0 0.0
2015-Apr-26 04:31N 54°51' W 005°48'0 0.0
2015-Apr-26 03:33N 54°51' W 005°48'0 0.0
2015-Apr-26 02:33N 54°51' W 005°48'0 0.0
2015-Apr-26 01:33N 54°51' W 005°48'0 0.0
2015-Apr-26 00:33N 54°51' W 005°48'0 0.0
2015-Apr-25 23:33N 54°51' W 005°48'0 0.0
2015-Apr-25 22:33N 54°51' W 005°48'0 0.0
2015-Apr-25 21:33N 54°51' W 005°48'3 3.0
2015-Apr-25 20:34N 54°53' W 005°44'2120.7
2015-Apr-25 19:34N 55°01' W 005°11'7 6.6
2015-Apr-25 18:31N 54°58' W 005°01'0 0.1
2015-Apr-25 17:31N 54°58' W 005°01'1110.9
2015-Apr-25 16:33N 54°58' W 005°19'1717.6
2015-Apr-25 15:33N 54°51' W 005°48'  

Dump ship's entire track history